Burns, WY (82053)

12:48 AM MDT on October 23, 2014 (GMT -0600)
Hillsdale South Ranchettes | Change Station
CLOSE
Current Station
Personal Weather Station
Location: Carpenter, WY
Elevation: 5735 ft
Nearby Weather Stations

Elev 5735 ft 41.13 °N, 104.51 °W | Updated 31 seconds ago

Clear
Clear
40.5 °F
Feels Like 36 °F
N
7.0
Wind Variable Wind from WSW
Gusts 8.0 mph

Today
High -- | Low -- °F
--% Chance of Precip.
Yesterday
High -- | Low -- °F
Precip. -- in
7:18 AM 6:04 PM
Waning Crescent, 0% visible
Pressure 30.14 in
Visibility 10.0 miles
Clouds Clear
Windchill 36 °F
Dew Point 33 °F
Humidity 74%
Rainfall 0.00 in
Snow Depth Not available.
UV 0 out of 12
Pollen 2.70 out of 12
Air Quality Not available.
Flu Activity Sporadic
METAR K82V 230635Z AUTO 25007KT 10SM CLR 02/01 A3014 RMK AO2

More Conditions Fewer Conditions

Pressure 30.14 in
Visibility 10.0 miles
Clouds Clear
Windchill 36 °F
Dew Point 33 °F
Humidity 74%
Rainfall 0.00 in
Snow Depth Not available.
UV 0 out of 12
Pollen 2.70 out of 12
Air Quality Not available.
Flu Activity Sporadic
METAR K82V 230635Z AUTO 25007KT 10SM CLR 02/01 A3014 RMK AO2

More Conditions Fewer Conditions

10-Day Weather Forecast

Almanac

Astronomy

Oct. 23, 2014 Rise Set
Actual Time 7:18 AM MDT 6:04 PM MDT
Civil Twilight 6:49 AM MDT 6:32 PM MDT
Nautical Twilight 6:17 AM MDT 7:04 PM MDT
Astronomical Twilight 5:45 AM MDT 7:36 PM MDT
Moon 6:59 AM MDT 6:07 PM MDT
Length of Visible Light 11h 42m
Length of Day
10h 46m
Tomorrow will be 2m 34s shorter.
Waning Crescent, 0% of the Moon is Illuminated
Today
Waning Crescent
Oct 23
New
Oct 30
First Quarter
Nov 6
Full
Nov 14
Last Quarter

Today's Extremes

State Highs State Lows

Community

WunderPhotos

Upload Photos

1,764,194 photos uploaded!

Nearby

Snow Depth

Station Depth Elevation
Crow Creek 1 in 8330 ft
Whiskey Park 0 in 8950 ft
Cinnabar Park 1 in 9690 ft
Brooklyn Lake 1 in 10220 ft
Windy Peak 1 in 7900 ft

Earthquake Activity

City Distance Mag. Time & Date
No recent earthquake activity has been reported nearby.
Minimum magnitude displayed is 2.5.

Coastal Water Temperatures

Place Temperature
No Stations Reporting

Nearby Weather Stations